sensor_id;sensor_type;location;lat;lon;timestamp;pressure;altitude;pressure_sealevel;temperature;humidity
60019;BME280;45870;42.528;26.740;2023-08-12T00:00:09;100013.84;;;24.76;45.71
60019;BME280;45870;42.528;26.740;2023-08-12T00:02:42;100017.00;;;24.52;46.54
60019;BME280;45870;42.528;26.740;2023-08-12T00:05:08;99972.28;;;24.33;46.46
60019;BME280;45870;42.528;26.740;2023-08-12T00:07:34;100005.50;;;24.59;46.28
60019;BME280;45870;42.528;26.740;2023-08-12T00:10:04;100006.31;;;24.59;46.46
60019;BME280;45870;42.528;26.740;2023-08-12T00:12:31;99950.63;;;24.18;46.15
60019;BME280;45870;42.528;26.740;2023-08-12T00:14:58;100013.94;;;24.01;48.33
60019;BME280;45870;42.528;26.740;2023-08-12T00:17:24;100014.72;;;24.54;46.65
60019;BME280;45870;42.528;26.740;2023-08-12T00:19:49;100019.59;;;24.57;46.37
60019;BME280;45870;42.528;26.740;2023-08-12T00:22:15;100014.19;;;24.44;46.91
60019;BME280;45870;42.528;26.740;2023-08-12T00:24:40;100006.84;;;24.30;46.56
60019;BME280;45870;42.528;26.740;2023-08-12T00:27:06;100009.16;;;24.46;46.68
60019;BME280;45870;42.528;26.740;2023-08-12T00:29:34;100006.78;;;24.22;47.09
60019;BME280;45870;42.528;26.740;2023-08-12T00:32:01;100020.19;;;24.46;46.77
60019;BME280;45870;42.528;26.740;2023-08-12T00:34:27;99953.31;;;24.09;46.52
60019;BME280;45870;42.528;26.740;2023-08-12T00:36:52;100007.53;;;23.47;48.54
60019;BME280;45870;42.528;26.740;2023-08-12T00:39:18;99946.50;;;22.82;50.01
60019;BME280;45870;42.528;26.740;2023-08-12T00:41:44;100025.78;;;24.54;46.87
60019;BME280;45870;42.528;26.740;2023-08-12T00:44:09;99986.34;;;24.23;46.90
60019;BME280;45870;42.528;26.740;2023-08-12T00:46:37;100020.13;;;24.59;46.48
60019;BME280;45870;42.528;26.740;2023-08-12T00:49:04;99924.22;;;23.64;47.45
60019;BME280;45870;42.528;26.740;2023-08-12T00:51:30;100011.38;;;24.66;46.46
60019;BME280;45870;42.528;26.740;2023-08-12T00:53:58;100013.28;;;24.57;46.29
60019;BME280;45870;42.528;26.740;2023-08-12T00:56:25;99976.50;;;24.30;46.01
60019;BME280;45870;42.528;26.740;2023-08-12T00:58:52;99882.97;;;23.36;46.85
60019;BME280;45870;42.528;26.740;2023-08-12T01:01:18;100023.78;;;24.15;46.88
60019;BME280;45870;42.528;26.740;2023-08-12T01:03:44;100017.50;;;24.23;46.51
60019;BME280;45870;42.528;26.740;2023-08-12T01:06:10;100019.06;;;24.47;45.95
60019;BME280;45870;42.528;26.740;2023-08-12T01:08:36;100013.38;;;24.43;46.00
60019;BME280;45870;42.528;26.740;2023-08-12T01:11:24;99996.94;;;22.50;50.54
60019;BME280;45870;42.528;26.740;2023-08-12T01:16:52;100022.75;;;24.11;46.72
60019;BME280;45870;42.528;26.740;2023-08-12T01:19:29;99987.63;;;23.95;46.38
60019;BME280;45870;42.528;26.740;2023-08-12T01:21:55;99955.03;;;22.94;48.51
60019;BME280;45870;42.528;26.740;2023-08-12T01:24:25;100021.66;;;23.68;47.21
60019;BME280;45870;42.528;26.740;2023-08-12T01:26:50;100013.00;;;23.83;46.87
60019;BME280;45870;42.528;26.740;2023-08-12T01:29:17;100014.91;;;23.74;47.04
60019;BME280;45870;42.528;26.740;2023-08-12T01:34:52;100026.22;;;23.72;46.68
60019;BME280;45870;42.528;26.740;2023-08-12T01:37:24;100013.88;;;23.92;46.27
60019;BME280;45870;42.528;26.740;2023-08-12T01:39:51;100024.47;;;23.40;47.73
60019;BME280;45870;42.528;26.740;2023-08-12T01:42:18;100020.91;;;23.54;46.44
60019;BME280;45870;42.528;26.740;2023-08-12T01:44:45;100019.22;;;23.17;47.76
60019;BME280;45870;42.528;26.740;2023-08-12T01:47:13;100018.75;;;23.37;47.40
60019;BME280;45870;42.528;26.740;2023-08-12T01:49:39;100013.44;;;23.54;47.13
60019;BME280;45870;42.528;26.740;2023-08-12T01:52:04;99953.72;;;23.27;46.60
60019;BME280;45870;42.528;26.740;2023-08-12T01:54:30;100020.91;;;23.54;47.63
60019;BME280;45870;42.528;26.740;2023-08-12T01:57:03;100023.88;;;23.44;47.90
60019;BME280;45870;42.528;26.740;2023-08-12T01:59:31;100021.16;;;23.66;47.29
60019;BME280;45870;42.528;26.740;2023-08-12T02:01:57;100021.16;;;23.16;48.63
60019;BME280;45870;42.528;26.740;2023-08-12T02:04:23;100022.66;;;23.50;47.52
60019;BME280;45870;42.528;26.740;2023-08-12T02:06:48;100036.88;;;23.65;47.13
60019;BME280;45870;42.528;26.740;2023-08-12T02:09:15;100034.44;;;23.64;47.50
60019;BME280;45870;42.528;26.740;2023-08-12T02:11:41;100015.63;;;23.66;47.63
60019;BME280;45870;42.528;26.740;2023-08-12T02:14:06;100024.63;;;23.58;47.31
60019;BME280;45870;42.528;26.740;2023-08-12T02:16:32;100000.56;;;23.63;47.06
60019;BME280;45870;42.528;26.740;2023-08-12T02:18:57;100033.13;;;23.83;46.91
60019;BME280;45870;42.528;26.740;2023-08-12T02:21:23;100036.81;;;23.79;47.00
60019;BME280;45870;42.528;26.740;2023-08-12T02:23:48;100033.44;;;23.60;47.14
60019;BME280;45870;42.528;26.740;2023-08-12T02:26:15;100039.00;;;23.32;47.90
60019;BME280;45870;42.528;26.740;2023-08-12T02:28:41;100036.72;;;23.34;47.43
60019;BME280;45870;42.528;26.740;2023-08-12T02:31:07;100003.28;;;23.27;47.30
60019;BME280;45870;42.528;26.740;2023-08-12T02:33:32;100049.91;;;23.24;48.00
60019;BME280;45870;42.528;26.740;2023-08-12T02:35:58;100046.81;;;23.53;47.71
60019;BME280;45870;42.528;26.740;2023-08-12T02:38:23;100014.31;;;23.27;47.64
60019;BME280;45870;42.528;26.740;2023-08-12T02:40:50;100014.88;;;23.38;47.19
60019;BME280;45870;42.528;26.740;2023-08-12T02:43:16;100022.84;;;23.04;48.09
60019;BME280;45870;42.528;26.740;2023-08-12T02:45:42;100046.38;;;23.59;47.10
60019;BME280;45870;42.528;26.740;2023-08-12T02:48:09;100015.06;;;23.06;47.87
60019;BME280;45870;42.528;26.740;2023-08-12T02:50:35;100015.56;;;23.21;46.64
60019;BME280;45870;42.528;26.740;2023-08-12T02:53:01;100044.91;;;23.39;46.54
60019;BME280;45870;42.528;26.740;2023-08-12T02:55:26;100022.91;;;23.12;46.97
60019;BME280;45870;42.528;26.740;2023-08-12T02:57:52;100043.34;;;23.33;47.10
60019;BME280;45870;42.528;26.740;2023-08-12T03:00:17;100058.69;;;23.12;47.35
60019;BME280;45870;42.528;26.740;2023-08-12T03:02:43;100039.13;;;23.14;47.16
60019;BME280;45870;42.528;26.740;2023-08-12T03:05:09;100043.09;;;22.94;47.65
60019;BME280;45870;42.528;26.740;2023-08-12T03:07:35;99974.41;;;22.62;47.25
60019;BME280;45870;42.528;26.740;2023-08-12T03:10:01;100051.84;;;23.23;47.34
60019;BME280;45870;42.528;26.740;2023-08-12T03:12:26;100056.03;;;23.21;47.42
60019;BME280;45870;42.528;26.740;2023-08-12T03:14:52;100061.25;;;22.95;48.48
60019;BME280;45870;42.528;26.740;2023-08-12T03:17:18;100061.44;;;23.12;47.87
60019;BME280;45870;42.528;26.740;2023-08-12T03:19:43;100051.94;;;23.46;47.28
60019;BME280;45870;42.528;26.740;2023-08-12T03:22:09;100059.63;;;22.94;48.42
60019;BME280;45870;42.528;26.740;2023-08-12T03:24:34;100061.38;;;22.90;49.05
60019;BME280;45870;42.528;26.740;2023-08-12T03:27:02;100060.84;;;23.15;48.26
60019;BME280;45870;42.528;26.740;2023-08-12T03:29:28;100044.31;;;23.15;48.15
60019;BME280;45870;42.528;26.740;2023-08-12T03:31:53;100064.56;;;23.82;47.38
60019;BME280;45870;42.528;26.740;2023-08-12T03:34:19;100060.63;;;24.42;46.42
60019;BME280;45870;42.528;26.740;2023-08-12T03:36:45;100065.22;;;24.85;45.81
60019;BME280;45870;42.528;26.740;2023-08-12T03:39:13;100070.75;;;26.02;45.62
60019;BME280;45870;42.528;26.740;2023-08-12T03:41:39;100035.63;;;26.58;42.40
60019;BME280;45870;42.528;26.740;2023-08-12T03:44:05;100033.13;;;27.32;39.91
60019;BME280;45870;42.528;26.740;2023-08-12T03:46:31;100067.47;;;28.22;39.69
60019;BME280;45870;42.528;26.740;2023-08-12T03:48:57;100071.56;;;29.06;36.57
60019;BME280;45870;42.528;26.740;2023-08-12T03:51:22;100072.72;;;28.03;36.74
60019;BME280;45870;42.528;26.740;2023-08-12T03:53:48;100027.44;;;28.68;36.26
60019;BME280;45870;42.528;26.740;2023-08-12T03:56:14;100077.22;;;30.54;33.69
60019;BME280;45870;42.528;26.740;2023-08-12T03:58:42;100068.16;;;31.93;31.37
60019;BME280;45870;42.528;26.740;2023-08-12T04:01:08;100071.88;;;32.58;30.14
60019;BME280;45870;42.528;26.740;2023-08-12T04:03:33;100076.56;;;33.22;29.29
60019;BME280;45870;42.528;26.740;2023-08-12T04:05:59;100077.22;;;34.28;28.16
60019;BME280;45870;42.528;26.740;2023-08-12T04:08:24;100085.84;;;35.40;26.66
60019;BME280;45870;42.528;26.740;2023-08-12T04:10:51;100086.69;;;36.10;25.63
60019;BME280;45870;42.528;26.740;2023-08-12T04:13:17;100044.84;;;35.94;24.95
60019;BME280;45870;42.528;26.740;2023-08-12T04:15:48;100098.09;;;36.91;24.66
60019;BME280;45870;42.528;26.740;2023-08-12T04:18:14;100077.56;;;37.40;23.57
60019;BME280;45870;42.528;26.740;2023-08-12T04:20:40;100104.19;;;38.43;23.03
60019;BME280;45870;42.528;26.740;2023-08-12T04:23:06;100101.69;;;38.60;22.61
60019;BME280;45870;42.528;26.740;2023-08-12T04:25:31;100108.81;;;38.75;21.96
60019;BME280;45870;42.528;26.740;2023-08-12T04:27:57;100104.16;;;38.51;22.17
60019;BME280;45870;42.528;26.740;2023-08-12T04:30:23;100116.47;;;38.02;22.59
60019;BME280;45870;42.528;26.740;2023-08-12T04:32:49;100122.44;;;39.38;21.79
60019;BME280;45870;42.528;26.740;2023-08-12T04:35:14;100112.34;;;39.37;21.27
60019;BME280;45870;42.528;26.740;2023-08-12T04:37:40;100106.38;;;39.32;21.67
60019;BME280;45870;42.528;26.740;2023-08-12T04:40:06;100122.66;;;39.96;20.93
60019;BME280;45870;42.528;26.740;2023-08-12T04:42:35;100115.81;;;39.56;21.10
60019;BME280;45870;42.528;26.740;2023-08-12T04:45:01;100111.78;;;41.74;19.18
60019;BME280;45870;42.528;26.740;2023-08-12T04:47:28;100117.84;;;41.53;18.90
60019;BME280;45870;42.528;26.740;2023-08-12T04:49:54;100114.41;;;40.08;19.66
60019;BME280;45870;42.528;26.740;2023-08-12T04:52:20;100112.47;;;40.89;19.32
60019;BME280;45870;42.528;26.740;2023-08-12T04:54:46;100108.19;;;39.90;20.57
60019;BME280;45870;42.528;26.740;2023-08-12T04:57:12;100113.41;;;37.22;22.92
60019;BME280;45870;42.528;26.740;2023-08-12T04:59:37;100096.47;;;37.61;22.48
60019;BME280;45870;42.528;26.740;2023-08-12T05:02:03;100106.09;;;36.57;23.34
60019;BME280;45870;42.528;26.740;2023-08-12T05:04:29;100104.66;;;36.01;23.35
60019;BME280;45870;42.528;26.740;2023-08-12T05:06:54;100067.66;;;35.75;24.42
60019;BME280;45870;42.528;26.740;2023-08-12T05:09:20;100043.63;;;34.31;25.53
60019;BME280;45870;42.528;26.740;2023-08-12T05:11:46;100107.31;;;35.70;24.45
60019;BME280;45870;42.528;26.740;2023-08-12T05:14:11;100053.31;;;35.29;24.77
60019;BME280;45870;42.528;26.740;2023-08-12T05:16:37;100048.97;;;34.10;26.17
60019;BME280;45870;42.528;26.740;2023-08-12T05:19:03;100105.72;;;35.14;25.87
60019;BME280;45870;42.528;26.740;2023-08-12T05:21:28;100102.59;;;35.84;25.60
60019;BME280;45870;42.528;26.740;2023-08-12T05:23:54;100091.84;;;34.88;25.90
60019;BME280;45870;42.528;26.740;2023-08-12T05:26:20;100113.69;;;34.31;26.32
60019;BME280;45870;42.528;26.740;2023-08-12T05:28:46;100106.66;;;34.85;26.75
60019;BME280;45870;42.528;26.740;2023-08-12T05:31:11;100110.34;;;34.19;26.55
60019;BME280;45870;42.528;26.740;2023-08-12T05:33:37;100108.00;;;33.38;28.54
60019;BME280;45870;42.528;26.740;2023-08-12T05:36:03;100106.22;;;34.79;26.93
60019;BME280;45870;42.528;26.740;2023-08-12T05:38:29;100110.97;;;35.19;26.21
60019;BME280;45870;42.528;26.740;2023-08-12T05:40:55;100089.00;;;34.10;25.93
60019;BME280;45870;42.528;26.740;2023-08-12T05:43:21;100109.22;;;33.63;27.39
60019;BME280;45870;42.528;26.740;2023-08-12T05:45:48;100094.59;;;33.77;27.37
60019;BME280;45870;42.528;26.740;2023-08-12T05:48:13;100105.78;;;33.02;28.36
60019;BME280;45870;42.528;26.740;2023-08-12T05:50:39;100081.69;;;32.29;29.31
60019;BME280;45870;42.528;26.740;2023-08-12T05:53:04;100106.53;;;33.22;28.46
60019;BME280;45870;42.528;26.740;2023-08-12T05:55:33;100087.06;;;33.29;28.24
60019;BME280;45870;42.528;26.740;2023-08-12T05:58:00;100083.06;;;34.89;25.74
60019;BME280;45870;42.528;26.740;2023-08-12T06:00:25;100104.81;;;34.26;26.32
60019;BME280;45870;42.528;26.740;2023-08-12T06:02:51;100068.84;;;33.68;25.87
60019;BME280;45870;42.528;26.740;2023-08-12T06:05:16;100042.78;;;33.34;27.34
60019;BME280;45870;42.528;26.740;2023-08-12T06:07:42;100071.78;;;33.49;27.10
60019;BME280;45870;42.528;26.740;2023-08-12T06:10:08;100076.50;;;32.08;28.56
60019;BME280;45870;42.528;26.740;2023-08-12T06:12:34;100101.53;;;33.34;28.24
60019;BME280;45870;42.528;26.740;2023-08-12T06:14:59;100100.38;;;33.35;27.00
60019;BME280;45870;42.528;26.740;2023-08-12T06:17:26;100039.25;;;32.65;28.53
60019;BME280;45870;42.528;26.740;2023-08-12T06:19:52;100082.22;;;32.57;27.98
60019;BME280;45870;42.528;26.740;2023-08-12T06:22:18;100034.34;;;33.08;26.90
60019;BME280;45870;42.528;26.740;2023-08-12T06:24:43;100088.56;;;33.23;27.17
60019;BME280;45870;42.528;26.740;2023-08-12T06:27:09;100099.19;;;33.62;27.47
60019;BME280;45870;42.528;26.740;2023-08-12T06:29:34;100080.59;;;32.56;28.09
60019;BME280;45870;42.528;26.740;2023-08-12T06:32:00;100091.19;;;32.66;27.86
60019;BME280;45870;42.528;26.740;2023-08-12T06:34:26;100090.94;;;33.73;27.47
60019;BME280;45870;42.528;26.740;2023-08-12T06:36:51;100058.19;;;33.51;27.12
60019;BME280;45870;42.528;26.740;2023-08-12T06:39:17;100088.25;;;32.37;28.03
60019;BME280;45870;42.528;26.740;2023-08-12T06:41:43;100084.84;;;31.89;29.25
60019;BME280;45870;42.528;26.740;2023-08-12T06:44:09;100069.81;;;33.00;27.67
60019;BME280;45870;42.528;26.740;2023-08-12T06:46:35;100023.97;;;33.08;27.10
60019;BME280;45870;42.528;26.740;2023-08-12T06:49:00;100074.09;;;33.17;27.90
60019;BME280;45870;42.528;26.740;2023-08-12T06:51:26;99931.03;;;31.37;28.98
60019;BME280;45870;42.528;26.740;2023-08-12T06:53:52;100086.78;;;33.11;27.36
60019;BME280;45870;42.528;26.740;2023-08-12T06:56:17;100086.78;;;32.65;27.96
60019;BME280;45870;42.528;26.740;2023-08-12T06:58:43;100086.09;;;34.33;26.61
60019;BME280;45870;42.528;26.740;2023-08-12T07:01:08;99970.34;;;33.59;25.87
60019;BME280;45870;42.528;26.740;2023-08-12T07:03:34;100080.25;;;33.03;27.29
60019;BME280;45870;42.528;26.740;2023-08-12T07:06:00;100071.28;;;33.43;28.32
60019;BME280;45870;42.528;26.740;2023-08-12T07:08:25;100072.44;;;33.39;27.40
60019;BME280;45870;42.528;26.740;2023-08-12T07:10:52;100085.03;;;32.80;28.28
60019;BME280;45870;42.528;26.740;2023-08-12T07:13:18;100069.63;;;33.65;27.22
60019;BME280;45870;42.528;26.740;2023-08-12T07:15:44;100075.66;;;33.41;27.05
60019;BME280;45870;42.528;26.740;2023-08-12T07:18:09;100075.59;;;33.37;27.28
60019;BME280;45870;42.528;26.740;2023-08-12T07:20:35;100055.75;;;33.20;27.75
60019;BME280;45870;42.528;26.740;2023-08-12T07:23:01;100054.84;;;32.89;28.37
60019;BME280;45870;42.528;26.740;2023-08-12T07:25:26;100063.84;;;33.81;27.95
60019;BME280;45870;42.528;26.740;2023-08-12T07:27:55;100063.03;;;34.13;25.93
60019;BME280;45870;42.528;26.740;2023-08-12T07:30:21;100059.13;;;32.83;28.32
60019;BME280;45870;42.528;26.740;2023-08-12T07:32:47;100056.47;;;33.43;27.32
60019;BME280;45870;42.528;26.740;2023-08-12T07:35:17;100022.78;;;33.62;27.17
60019;BME280;45870;42.528;26.740;2023-08-12T07:37:43;100029.59;;;32.59;28.16
60019;BME280;45870;42.528;26.740;2023-08-12T07:40:09;99980.13;;;33.72;28.04
60019;BME280;45870;42.528;26.740;2023-08-12T07:42:35;100047.97;;;33.36;27.12
60019;BME280;45870;42.528;26.740;2023-08-12T07:45:00;100063.00;;;34.47;27.94
60019;BME280;45870;42.528;26.740;2023-08-12T07:47:35;99983.38;;;32.92;27.40
60019;BME280;45870;42.528;26.740;2023-08-12T07:50:01;100055.72;;;32.93;27.60
60019;BME280;45870;42.528;26.740;2023-08-12T07:52:26;100048.28;;;33.27;28.11
60019;BME280;45870;42.528;26.740;2023-08-12T07:54:52;100047.75;;;33.48;27.66
60019;BME280;45870;42.528;26.740;2023-08-12T07:57:18;100038.19;;;33.49;27.36
60019;BME280;45870;42.528;26.740;2023-08-12T07:59:45;100053.19;;;34.27;26.60
60019;BME280;45870;42.528;26.740;2023-08-12T08:02:11;100028.84;;;33.11;27.53
60019;BME280;45870;42.528;26.740;2023-08-12T08:04:37;100050.94;;;34.43;25.70
60019;BME280;45870;42.528;26.740;2023-08-12T08:07:02;100024.75;;;34.25;26.84
60019;BME280;45870;42.528;26.740;2023-08-12T08:09:28;100049.97;;;34.25;26.77
60019;BME280;45870;42.528;26.740;2023-08-12T08:11:54;100024.81;;;33.65;26.38
60019;BME280;45870;42.528;26.740;2023-08-12T08:14:20;100044.56;;;34.09;27.08
60019;BME280;45870;42.528;26.740;2023-08-12T08:16:45;100023.66;;;33.66;27.25
60019;BME280;45870;42.528;26.740;2023-08-12T08:19:11;100048.06;;;33.69;27.80
60019;BME280;45870;42.528;26.740;2023-08-12T08:21:37;100044.25;;;34.98;25.92
60019;BME280;45870;42.528;26.740;2023-08-12T08:24:03;100057.75;;;34.42;25.52
60019;BME280;45870;42.528;26.740;2023-08-12T08:26:28;100029.38;;;34.94;25.32
60019;BME280;45870;42.528;26.740;2023-08-12T08:28:54;99993.97;;;32.79;26.55
60019;BME280;45870;42.528;26.740;2023-08-12T08:31:20;99965.19;;;33.94;26.80
60019;BME280;45870;42.528;26.740;2023-08-12T08:33:45;100045.13;;;35.64;23.86
60019;BME280;45870;42.528;26.740;2023-08-12T08:36:11;100042.31;;;35.06;24.32
60019;BME280;45870;42.528;26.740;2023-08-12T08:38:36;100011.69;;;35.41;23.28
60019;BME280;45870;42.528;26.740;2023-08-12T08:41:05;100046.88;;;35.25;24.71
60019;BME280;45870;42.528;26.740;2023-08-12T08:43:35;99990.56;;;34.52;24.65
60019;BME280;45870;42.528;26.740;2023-08-12T08:46:02;100043.25;;;33.66;25.80
60019;BME280;45870;42.528;26.740;2023-08-12T08:48:31;100027.88;;;34.60;25.41
60019;BME280;45870;42.528;26.740;2023-08-12T08:51:00;99989.81;;;35.06;23.94
60019;BME280;45870;42.528;26.740;2023-08-12T08:53:27;100022.72;;;33.88;25.80
60019;BME280;45870;42.528;26.740;2023-08-12T08:55:53;100027.63;;;34.32;26.81
60019;BME280;45870;42.528;26.740;2023-08-12T08:58:20;100024.81;;;33.95;26.13
60019;BME280;45870;42.528;26.740;2023-08-12T09:00:48;100012.75;;;33.91;25.75
60019;BME280;45870;42.528;26.740;2023-08-12T09:03:14;100021.69;;;35.35;24.33
60019;BME280;45870;42.528;26.740;2023-08-12T09:05:41;99994.34;;;36.33;23.73
60019;BME280;45870;42.528;26.740;2023-08-12T09:08:11;99975.22;;;35.48;24.79
60019;BME280;45870;42.528;26.740;2023-08-12T09:10:39;100022.50;;;35.36;24.40
60019;BME280;45870;42.528;26.740;2023-08-12T09:13:06;100003.31;;;35.52;24.83
60019;BME280;45870;42.528;26.740;2023-08-12T09:15:32;100020.25;;;35.70;24.38
60019;BME280;45870;42.528;26.740;2023-08-12T09:17:58;100013.88;;;35.11;24.28
60019;BME280;45870;42.528;26.740;2023-08-12T09:20:24;100009.50;;;34.22;24.73
60019;BME280;45870;42.528;26.740;2023-08-12T09:22:57;99952.47;;;34.95;25.70
60019;BME280;45870;42.528;26.740;2023-08-12T09:25:23;99985.06;;;34.63;25.09
60019;BME280;45870;42.528;26.740;2023-08-12T09:27:49;99971.28;;;35.60;24.37
60019;BME280;45870;42.528;26.740;2023-08-12T09:30:14;99993.53;;;34.70;24.72
60019;BME280;45870;42.528;26.740;2023-08-12T09:32:40;99976.09;;;34.43;24.93
60019;BME280;45870;42.528;26.740;2023-08-12T09:35:15;99966.44;;;34.88;25.24
60019;BME280;45870;42.528;26.740;2023-08-12T09:37:43;99958.75;;;35.47;24.77
60019;BME280;45870;42.528;26.740;2023-08-12T09:40:09;100013.09;;;35.86;24.04
60019;BME280;45870;42.528;26.740;2023-08-12T09:42:36;100006.63;;;35.06;24.00
60019;BME280;45870;42.528;26.740;2023-08-12T09:45:10;99998.66;;;35.91;24.26
60019;BME280;45870;42.528;26.740;2023-08-12T09:47:36;99975.31;;;35.66;23.91
60019;BME280;45870;42.528;26.740;2023-08-12T09:50:02;100000.38;;;34.69;25.30
60019;BME280;45870;42.528;26.740;2023-08-12T09:52:28;100001.72;;;34.89;23.76
60019;BME280;45870;42.528;26.740;2023-08-12T09:54:56;99963.47;;;34.20;25.96
60019;BME280;45870;42.528;26.740;2023-08-12T09:57:25;99987.22;;;35.45;25.46
60019;BME280;45870;42.528;26.740;2023-08-12T09:59:52;99997.34;;;34.95;26.27
60019;BME280;45870;42.528;26.740;2023-08-12T10:02:20;99984.31;;;36.49;24.16
60019;BME280;45870;42.528;26.740;2023-08-12T10:04:46;99993.94;;;36.17;23.93
60019;BME280;45870;42.528;26.740;2023-08-12T10:07:17;99989.00;;;35.75;24.38
60019;BME280;45870;42.528;26.740;2023-08-12T10:09:44;99988.81;;;35.39;24.91
60019;BME280;45870;42.528;26.740;2023-08-12T10:12:11;99912.66;;;35.55;24.19
60019;BME280;45870;42.528;26.740;2023-08-12T10:14:37;99983.34;;;34.99;24.79
60019;BME280;45870;42.528;26.740;2023-08-12T10:17:04;99966.25;;;35.18;24.64
60019;BME280;45870;42.528;26.740;2023-08-12T10:19:31;99929.03;;;33.82;26.21
60019;BME280;45870;42.528;26.740;2023-08-12T10:21:58;99984.00;;;33.64;26.93
60019;BME280;45870;42.528;26.740;2023-08-12T10:24:27;99930.13;;;33.71;27.74
60019;BME280;45870;42.528;26.740;2023-08-12T10:26:53;99969.41;;;34.58;27.43
60019;BME280;45870;42.528;26.740;2023-08-12T10:29:20;99924.22;;;33.46;27.25
60019;BME280;45870;42.528;26.740;2023-08-12T10:31:47;99974.13;;;33.44;27.88
60019;BME280;45870;42.528;26.740;2023-08-12T10:34:24;99957.72;;;33.72;27.76
60019;BME280;45870;42.528;26.740;2023-08-12T10:37:01;99922.34;;;34.85;25.54
60019;BME280;45870;42.528;26.740;2023-08-12T10:39:27;99921.00;;;33.14;28.41
60019;BME280;45870;42.528;26.740;2023-08-12T10:41:57;99963.16;;;33.02;27.65
60019;BME280;45870;42.528;26.740;2023-08-12T10:44:27;99946.97;;;32.62;28.15
60019;BME280;45870;42.528;26.740;2023-08-12T10:47:08;99951.59;;;33.03;27.62
60019;BME280;45870;42.528;26.740;2023-08-12T10:49:38;99922.31;;;33.90;26.06
60019;BME280;45870;42.528;26.740;2023-08-12T10:52:04;99948.44;;;34.01;27.94
60019;BME280;45870;42.528;26.740;2023-08-12T10:54:30;99950.19;;;33.46;27.27
60019;BME280;45870;42.528;26.740;2023-08-12T11:04:44;99826.88;;;32.69;25.47
60019;BME280;45870;42.528;26.740;2023-08-12T11:07:18;99937.47;;;33.52;26.36
60019;BME280;45870;42.528;26.740;2023-08-12T11:09:46;99927.28;;;33.67;26.25
60019;BME280;45870;42.528;26.740;2023-08-12T11:12:17;99937.47;;;33.86;25.79
60019;BME280;45870;42.528;26.740;2023-08-12T11:14:49;99901.94;;;33.56;26.82
60019;BME280;45870;42.528;26.740;2023-08-12T11:17:18;99932.19;;;34.18;26.69
60019;BME280;45870;42.528;26.740;2023-08-12T11:19:44;99905.84;;;32.89;26.42
60019;BME280;45870;42.528;26.740;2023-08-12T11:22:10;99927.47;;;34.25;25.30
60019;BME280;45870;42.528;26.740;2023-08-12T11:24:40;99875.25;;;33.62;25.07
60019;BME280;45870;42.528;26.740;2023-08-12T11:27:09;99915.84;;;34.20;26.08
60019;BME280;45870;42.528;26.740;2023-08-12T11:29:37;99904.69;;;34.27;24.48
60019;BME280;45870;42.528;26.740;2023-08-12T11:32:05;99933.06;;;33.85;25.43
60019;BME280;45870;42.528;26.740;2023-08-12T11:34:31;99924.97;;;34.17;24.31
60019;BME280;45870;42.528;26.740;2023-08-12T11:36:58;99928.19;;;34.15;24.88
60019;BME280;45870;42.528;26.740;2023-08-12T11:39:24;99917.75;;;33.42;25.39
60019;BME280;45870;42.528;26.740;2023-08-12T11:41:52;99882.44;;;34.04;25.48
60019;BME280;45870;42.528;26.740;2023-08-12T11:44:22;99888.66;;;34.27;24.78
60019;BME280;45870;42.528;26.740;2023-08-12T11:46:49;99885.03;;;33.83;26.29
60019;BME280;45870;42.528;26.740;2023-08-12T11:49:14;99883.13;;;34.38;24.56
60019;BME280;45870;42.528;26.740;2023-08-12T11:51:41;99893.13;;;33.91;25.42
60019;BME280;45870;42.528;26.740;2023-08-12T11:54:08;99902.47;;;34.53;24.54
60019;BME280;45870;42.528;26.740;2023-08-12T11:56:33;99876.19;;;34.69;24.51
60019;BME280;45870;42.528;26.740;2023-08-12T11:58:59;99891.19;;;34.43;25.54
60019;BME280;45870;42.528;26.740;2023-08-12T12:01:25;99900.84;;;34.49;24.65
60019;BME280;45870;42.528;26.740;2023-08-12T12:03:54;99876.50;;;33.69;26.69
60019;BME280;45870;42.528;26.740;2023-08-12T12:06:36;99894.19;;;34.68;25.26
60019;BME280;45870;42.528;26.740;2023-08-12T12:09:08;99893.44;;;34.78;26.36
60019;BME280;45870;42.528;26.740;2023-08-12T12:11:36;99882.63;;;35.66;24.45
60019;BME280;45870;42.528;26.740;2023-08-12T12:14:03;99898.94;;;35.22;23.41
60019;BME280;45870;42.528;26.740;2023-08-12T12:16:46;99828.00;;;34.56;24.41
60019;BME280;45870;42.528;26.740;2023-08-12T12:19:22;99883.03;;;34.27;25.76
60019;BME280;45870;42.528;26.740;2023-08-12T12:21:51;99895.75;;;34.14;26.04
60019;BME280;45870;42.528;26.740;2023-08-12T12:24:18;99884.25;;;33.49;26.58
60019;BME280;45870;42.528;26.740;2023-08-12T12:26:44;99864.63;;;34.23;24.81
60019;BME280;45870;42.528;26.740;2023-08-12T12:29:11;99879.72;;;35.34;24.32
60019;BME280;45870;42.528;26.740;2023-08-12T12:31:41;99860.56;;;34.71;25.26
60019;BME280;45870;42.528;26.740;2023-08-12T12:34:07;99879.09;;;34.32;25.21
60019;BME280;45870;42.528;26.740;2023-08-12T12:36:36;99860.13;;;33.71;25.44
60019;BME280;45870;42.528;26.740;2023-08-12T12:39:03;99870.38;;;34.44;24.41
60019;BME280;45870;42.528;26.740;2023-08-12T12:41:30;99864.22;;;34.24;24.64
60019;BME280;45870;42.528;26.740;2023-08-12T12:43:56;99869.56;;;34.43;25.17
60019;BME280;45870;42.528;26.740;2023-08-12T12:46:22;99869.03;;;33.83;26.42
60019;BME280;45870;42.528;26.740;2023-08-12T12:48:48;99801.59;;;33.58;26.18
60019;BME280;45870;42.528;26.740;2023-08-12T12:51:14;99862.69;;;33.49;26.81
60019;BME280;45870;42.528;26.740;2023-08-12T12:53:40;99869.78;;;32.80;27.66